sensor_id;sensor_type;location;lat;lon;timestamp;pressure;altitude;pressure_sealevel;temperature;humidity
32181;BME280;19172;51.504;3.894;2023-01-28T00:01:47;102903.84;;;9.20;78.80
32181;BME280;19172;51.504;3.894;2023-01-28T00:04:15;102911.22;;;9.73;77.94
32181;BME280;19172;51.504;3.894;2023-01-28T00:06:43;102909.44;;;9.50;77.47
32181;BME280;19172;51.504;3.894;2023-01-28T00:09:11;102915.88;;;9.56;77.82
32181;BME280;19172;51.504;3.894;2023-01-28T00:11:39;102916.34;;;9.46;76.95
32181;BME280;19172;51.504;3.894;2023-01-28T00:14:10;102913.72;;;9.26;76.89
32181;BME280;19172;51.504;3.894;2023-01-28T00:16:38;102919.56;;;9.39;77.20
32181;BME280;19172;51.504;3.894;2023-01-28T00:19:06;102927.63;;;9.87;77.47
32181;BME280;19172;51.504;3.894;2023-01-28T00:21:35;102919.34;;;9.55;75.97
32181;BME280;19172;51.504;3.894;2023-01-28T00:24:03;102914.19;;;10.27;76.36
32181;BME280;19172;51.504;3.894;2023-01-28T00:26:31;102925.00;;;10.33;75.85
32181;BME280;19172;51.504;3.894;2023-01-28T00:28:59;102920.94;;;10.42;74.43
32181;BME280;19172;51.504;3.894;2023-01-28T00:31:28;102924.97;;;9.87;74.31
32181;BME280;19172;51.504;3.894;2023-01-28T00:33:56;102931.09;;;9.64;74.32
32181;BME280;19172;51.504;3.894;2023-01-28T00:36:25;102924.66;;;10.24;74.65
32181;BME280;19172;51.504;3.894;2023-01-28T00:38:56;102930.84;;;10.24;73.46
32181;BME280;19172;51.504;3.894;2023-01-28T00:41:28;102928.63;;;9.90;73.08
32181;BME280;19172;51.504;3.894;2023-01-28T00:43:58;102926.00;;;9.46;72.99
32181;BME280;19172;51.504;3.894;2023-01-28T00:46:26;102919.16;;;9.73;73.12
32181;BME280;19172;51.504;3.894;2023-01-28T00:48:54;102920.06;;;9.74;73.77
32181;BME280;19172;51.504;3.894;2023-01-28T00:51:22;102919.44;;;9.14;73.66
32181;BME280;19172;51.504;3.894;2023-01-28T00:53:50;102920.59;;;9.65;73.55
32181;BME280;19172;51.504;3.894;2023-01-28T00:56:19;102918.31;;;9.30;74.04
32181;BME280;19172;51.504;3.894;2023-01-28T00:58:47;102921.50;;;8.80;73.78
32181;BME280;19172;51.504;3.894;2023-01-28T01:01:18;102912.59;;;8.78;74.54
32181;BME280;19172;51.504;3.894;2023-01-28T01:03:47;102913.41;;;8.35;75.18
32181;BME280;19172;51.504;3.894;2023-01-28T01:06:23;102916.50;;;9.29;76.24
32181;BME280;19172;51.504;3.894;2023-01-28T01:08:51;102904.88;;;9.03;75.82
32181;BME280;19172;51.504;3.894;2023-01-28T01:11:19;102908.78;;;9.55;75.51
32181;BME280;19172;51.504;3.894;2023-01-28T01:13:53;102901.69;;;9.77;75.33
32181;BME280;19172;51.504;3.894;2023-01-28T01:16:27;102902.69;;;9.80;74.14
32181;BME280;19172;51.504;3.894;2023-01-28T01:18:56;102906.09;;;10.00;74.39
32181;BME280;19172;51.504;3.894;2023-01-28T01:21:26;102909.28;;;10.14;73.63
32181;BME280;19172;51.504;3.894;2023-01-28T01:23:54;102911.28;;;9.30;72.56
32181;BME280;19172;51.504;3.894;2023-01-28T01:26:22;102906.81;;;9.50;73.32
32181;BME280;19172;51.504;3.894;2023-01-28T01:28:51;102909.97;;;10.09;73.74
32181;BME280;19172;51.504;3.894;2023-01-28T01:31:21;102913.94;;;10.44;73.95
32181;BME280;19172;51.504;3.894;2023-01-28T01:33:51;102908.22;;;10.32;73.36
32181;BME280;19172;51.504;3.894;2023-01-28T01:36:20;102911.47;;;10.74;72.54
32181;BME280;19172;51.504;3.894;2023-01-28T01:38:55;102915.84;;;10.48;72.02
32181;BME280;19172;51.504;3.894;2023-01-28T01:41:30;102914.00;;;10.46;71.15
32181;BME280;19172;51.504;3.894;2023-01-28T01:44:01;102922.09;;;10.50;70.58
32181;BME280;19172;51.504;3.894;2023-01-28T01:46:47;102922.50;;;10.37;70.44
32181;BME280;19172;51.504;3.894;2023-01-28T01:49:22;102922.28;;;10.31;70.60
32181;BME280;19172;51.504;3.894;2023-01-28T01:51:59;102918.63;;;9.60;71.02
32181;BME280;19172;51.504;3.894;2023-01-28T01:54:31;102925.69;;;10.05;70.81
32181;BME280;19172;51.504;3.894;2023-01-28T01:57:02;102930.69;;;9.53;69.95
32181;BME280;19172;51.504;3.894;2023-01-28T01:59:33;102923.75;;;8.91;69.93
32181;BME280;19172;51.504;3.894;2023-01-28T02:02:04;102919.75;;;9.88;70.66
32181;BME280;19172;51.504;3.894;2023-01-28T02:04:42;102926.06;;;10.14;70.12
32181;BME280;19172;51.504;3.894;2023-01-28T02:07:18;102918.28;;;9.96;69.82
32181;BME280;19172;51.504;3.894;2023-01-28T02:09:46;102922.81;;;9.54;70.30
32181;BME280;19172;51.504;3.894;2023-01-28T02:12:22;102925.69;;;10.05;69.85
32181;BME280;19172;51.504;3.894;2023-01-28T02:14:59;102927.53;;;10.07;69.67
32181;BME280;19172;51.504;3.894;2023-01-28T02:17:29;102920.53;;;10.08;70.21
32181;BME280;19172;51.504;3.894;2023-01-28T02:20:04;102916.75;;;10.25;70.66
32181;BME280;19172;51.504;3.894;2023-01-28T02:22:39;102919.84;;;10.37;70.24
32181;BME280;19172;51.504;3.894;2023-01-28T02:28:08;102916.06;;;10.07;70.35
32181;BME280;19172;51.504;3.894;2023-01-28T02:30:56;102920.38;;;9.81;70.78
32181;BME280;19172;51.504;3.894;2023-01-28T02:33:38;102922.50;;;10.14;70.99
32181;BME280;19172;51.504;3.894;2023-01-28T02:36:42;102927.31;;;10.01;70.87
32181;BME280;19172;51.504;3.894;2023-01-28T02:39:17;102925.69;;;9.38;71.40
32181;BME280;19172;51.504;3.894;2023-01-28T02:41:55;102926.59;;;9.39;72.26
32181;BME280;19172;51.504;3.894;2023-01-28T02:44:24;102925.47;;;9.54;72.29
32181;BME280;19172;51.504;3.894;2023-01-28T02:46:53;102934.50;;;9.39;73.13
32181;BME280;19172;51.504;3.894;2023-01-28T02:50:09;102930.44;;;9.04;72.68
32181;BME280;19172;51.504;3.894;2023-01-28T02:58:26;102928.34;;;9.61;71.25
32181;BME280;19172;51.504;3.894;2023-01-28T03:03:46;102937.00;;;9.79;71.10
32181;BME280;19172;51.504;3.894;2023-01-28T03:06:25;102937.25;;;9.85;70.96
32181;BME280;19172;51.504;3.894;2023-01-28T03:09:00;102938.75;;;9.35;71.13
32181;BME280;19172;51.504;3.894;2023-01-28T03:11:58;102938.19;;;9.65;71.37
32181;BME280;19172;51.504;3.894;2023-01-28T03:15:00;102941.63;;;9.62;71.18
32181;BME280;19172;51.504;3.894;2023-01-28T03:18:17;102943.06;;;9.76;71.16
32181;BME280;19172;51.504;3.894;2023-01-28T03:21:14;102955.03;;;10.13;71.75
32181;BME280;19172;51.504;3.894;2023-01-28T03:24:10;102957.13;;;9.32;71.08
32181;BME280;19172;51.504;3.894;2023-01-28T03:28:06;102958.31;;;8.19;70.36
32181;BME280;19172;51.504;3.894;2023-01-28T03:30:41;102950.81;;;9.49;71.56
32181;BME280;19172;51.504;3.894;2023-01-28T03:33:43;102948.75;;;9.87;71.94
32181;BME280;19172;51.504;3.894;2023-01-28T03:36:30;102947.50;;;9.55;70.99
32181;BME280;19172;51.504;3.894;2023-01-28T03:39:39;102945.44;;;9.92;70.91
32181;BME280;19172;51.504;3.894;2023-01-28T03:42:12;102960.06;;;10.27;71.17
32181;BME280;19172;51.504;3.894;2023-01-28T03:44:53;102955.53;;;9.80;70.26
32181;BME280;19172;51.504;3.894;2023-01-28T03:47:27;102958.59;;;10.13;70.35
32181;BME280;19172;51.504;3.894;2023-01-28T03:49:57;102951.00;;;10.21;69.16
32181;BME280;19172;51.504;3.894;2023-01-28T03:52:32;102952.53;;;10.16;69.20
32181;BME280;19172;51.504;3.894;2023-01-28T03:55:23;102954.75;;;9.83;69.02
32181;BME280;19172;51.504;3.894;2023-01-28T03:57:52;102955.63;;;10.05;68.82
32181;BME280;19172;51.504;3.894;2023-01-28T04:00:20;102949.97;;;10.17;69.16
32181;BME280;19172;51.504;3.894;2023-01-28T04:02:49;102952.38;;;9.89;68.02
32181;BME280;19172;51.504;3.894;2023-01-28T04:05:19;102964.94;;;9.51;68.39
32181;BME280;19172;51.504;3.894;2023-01-28T04:07:48;102959.41;;;9.66;69.13
32181;BME280;19172;51.504;3.894;2023-01-28T04:10:40;102963.53;;;9.82;69.26
32181;BME280;19172;51.504;3.894;2023-01-28T04:13:28;102957.72;;;9.90;69.07
32181;BME280;19172;51.504;3.894;2023-01-28T04:15:56;102956.41;;;9.36;68.75
32181;BME280;19172;51.504;3.894;2023-01-28T04:18:24;102957.47;;;9.84;69.58
32181;BME280;19172;51.504;3.894;2023-01-28T04:20:56;102966.72;;;9.95;68.97
32181;BME280;19172;51.504;3.894;2023-01-28T04:23:23;102965.50;;;9.22;69.17
32181;BME280;19172;51.504;3.894;2023-01-28T04:25:51;102973.81;;;9.31;69.08
32181;BME280;19172;51.504;3.894;2023-01-28T04:28:21;102975.06;;;9.84;69.87
32181;BME280;19172;51.504;3.894;2023-01-28T04:30:50;102986.47;;;9.83;69.10
32181;BME280;19172;51.504;3.894;2023-01-28T04:33:37;102967.59;;;10.18;68.88
32181;BME280;19172;51.504;3.894;2023-01-28T04:36:23;102971.03;;;9.71;68.50
32181;BME280;19172;51.504;3.894;2023-01-28T04:39:00;102969.91;;;9.87;68.27
32181;BME280;19172;51.504;3.894;2023-01-28T04:41:36;102973.28;;;8.78;68.45
32181;BME280;19172;51.504;3.894;2023-01-28T04:44:10;102969.69;;;8.76;69.31
32181;BME280;19172;51.504;3.894;2023-01-28T04:46:53;102974.69;;;8.90;70.48
32181;BME280;19172;51.504;3.894;2023-01-28T04:49:41;102971.69;;;9.43;71.07
32181;BME280;19172;51.504;3.894;2023-01-28T04:52:38;102975.75;;;9.57;70.32
32181;BME280;19172;51.504;3.894;2023-01-28T04:55:35;102968.56;;;8.90;69.91
32181;BME280;19172;51.504;3.894;2023-01-28T04:58:03;102970.66;;;8.59;70.36
32181;BME280;19172;51.504;3.894;2023-01-28T05:00:32;102962.56;;;9.57;71.66
32181;BME280;19172;51.504;3.894;2023-01-28T05:03:00;102958.31;;;9.18;71.32
32181;BME280;19172;51.504;3.894;2023-01-28T05:05:28;102960.94;;;8.77;71.06
32181;BME280;19172;51.504;3.894;2023-01-28T05:07:59;102962.28;;;9.29;71.46
32181;BME280;19172;51.504;3.894;2023-01-28T05:10:27;102962.03;;;9.44;71.63
32181;BME280;19172;51.504;3.894;2023-01-28T05:12:55;102966.09;;;9.58;71.18
32181;BME280;19172;51.504;3.894;2023-01-28T05:15:23;102958.44;;;9.21;71.47
32181;BME280;19172;51.504;3.894;2023-01-28T05:17:54;102961.50;;;9.52;71.91
32181;BME280;19172;51.504;3.894;2023-01-28T05:20:23;102955.44;;;9.77;71.67
32181;BME280;19172;51.504;3.894;2023-01-28T05:22:54;102953.69;;;9.78;71.31
32181;BME280;19172;51.504;3.894;2023-01-28T05:25:25;102956.75;;;9.44;71.39
32181;BME280;19172;51.504;3.894;2023-01-28T05:27:54;102964.44;;;9.82;71.00
32181;BME280;19172;51.504;3.894;2023-01-28T05:30:22;102977.22;;;9.29;70.63
32181;BME280;19172;51.504;3.894;2023-01-28T05:32:54;102975.53;;;9.51;71.55
32181;BME280;19172;51.504;3.894;2023-01-28T05:35:23;102972.66;;;9.68;71.74
32181;BME280;19172;51.504;3.894;2023-01-28T05:37:51;102971.50;;;9.61;71.58
32181;BME280;19172;51.504;3.894;2023-01-28T05:40:21;102968.47;;;9.50;71.33
32181;BME280;19172;51.504;3.894;2023-01-28T05:42:49;102968.88;;;9.83;70.92
32181;BME280;19172;51.504;3.894;2023-01-28T05:45:32;102971.47;;;10.04;69.93
32181;BME280;19172;51.504;3.894;2023-01-28T05:48:04;102971.47;;;9.82;69.30
32181;BME280;19172;51.504;3.894;2023-01-28T05:50:51;102955.91;;;9.67;68.86
32181;BME280;19172;51.504;3.894;2023-01-28T05:53:20;102965.34;;;10.05;69.02
32181;BME280;19172;51.504;3.894;2023-01-28T05:55:51;102968.81;;;10.26;69.17
32181;BME280;19172;51.504;3.894;2023-01-28T05:58:23;102960.31;;;10.35;68.89
32181;BME280;19172;51.504;3.894;2023-01-28T06:00:53;102948.78;;;10.33;67.67
32181;BME280;19172;51.504;3.894;2023-01-28T06:03:26;102947.00;;;10.81;67.23
32181;BME280;19172;51.504;3.894;2023-01-28T06:05:55;102969.31;;;10.63;67.15
32181;BME280;19172;51.504;3.894;2023-01-28T06:08:23;102969.84;;;10.79;66.42
32181;BME280;19172;51.504;3.894;2023-01-28T06:10:51;102971.41;;;10.97;66.37
32181;BME280;19172;51.504;3.894;2023-01-28T06:13:20;102960.78;;;11.23;66.24
32181;BME280;19172;51.504;3.894;2023-01-28T06:16:07;102966.31;;;11.30;65.80
32181;BME280;19172;51.504;3.894;2023-01-28T06:18:58;102968.22;;;11.34;64.86
32181;BME280;19172;51.504;3.894;2023-01-28T06:21:26;102968.84;;;11.26;64.13
32181;BME280;19172;51.504;3.894;2023-01-28T06:23:57;102965.94;;;11.45;63.59
32181;BME280;19172;51.504;3.894;2023-01-28T06:26:25;102970.69;;;11.28;63.01
32181;BME280;19172;51.504;3.894;2023-01-28T06:28:53;102971.81;;;11.36;62.99
32181;BME280;19172;51.504;3.894;2023-01-28T06:31:21;102971.13;;;11.15;62.68
32181;BME280;19172;51.504;3.894;2023-01-28T06:33:49;102976.06;;;11.31;62.61
32181;BME280;19172;51.504;3.894;2023-01-28T06:36:16;102975.47;;;11.13;62.99
32181;BME280;19172;51.504;3.894;2023-01-28T06:38:44;102967.44;;;11.10;63.53
32181;BME280;19172;51.504;3.894;2023-01-28T06:41:12;102980.91;;;10.92;63.78
32181;BME280;19172;51.504;3.894;2023-01-28T06:43:40;102981.50;;;11.09;64.41
32181;BME280;19172;51.504;3.894;2023-01-28T06:46:07;102981.91;;;11.21;63.04
32181;BME280;19172;51.504;3.894;2023-01-28T06:48:35;102983.28;;;11.35;63.05
32181;BME280;19172;51.504;3.894;2023-01-28T06:51:03;102984.88;;;11.30;63.30
32181;BME280;19172;51.504;3.894;2023-01-28T06:53:31;102993.31;;;11.19;63.05
32181;BME280;19172;51.504;3.894;2023-01-28T06:55:59;102984.09;;;11.07;63.12
32181;BME280;19172;51.504;3.894;2023-01-28T06:58:26;102977.41;;;11.19;62.54
32181;BME280;19172;51.504;3.894;2023-01-28T07:00:54;102990.19;;;11.05;62.60
32181;BME280;19172;51.504;3.894;2023-01-28T07:03:22;102999.50;;;10.94;61.96
32181;BME280;19172;51.504;3.894;2023-01-28T07:05:50;102991.25;;;10.85;62.01
32181;BME280;19172;51.504;3.894;2023-01-28T07:08:18;102994.84;;;10.63;62.54
32181;BME280;19172;51.504;3.894;2023-01-28T07:10:46;102990.88;;;10.74;62.54
32181;BME280;19172;51.504;3.894;2023-01-28T07:13:15;102987.91;;;10.65;63.01
32181;BME280;19172;51.504;3.894;2023-01-28T07:15:43;102987.78;;;10.15;63.33
32181;BME280;19172;51.504;3.894;2023-01-28T07:18:11;102984.63;;;10.48;63.96
32181;BME280;19172;51.504;3.894;2023-01-28T07:20:39;102999.13;;;10.59;64.16
32181;BME280;19172;51.504;3.894;2023-01-28T07:23:06;102996.31;;;10.79;63.87
32181;BME280;19172;51.504;3.894;2023-01-28T07:25:34;102991.13;;;10.82;63.13
32181;BME280;19172;51.504;3.894;2023-01-28T07:28:02;102991.69;;;10.73;62.85
32181;BME280;19172;51.504;3.894;2023-01-28T07:30:30;102992.50;;;10.71;62.98
32181;BME280;19172;51.504;3.894;2023-01-28T07:32:59;102989.47;;;10.85;63.39
32181;BME280;19172;51.504;3.894;2023-01-28T07:35:27;102993.56;;;10.76;62.60
32181;BME280;19172;51.504;3.894;2023-01-28T07:37:57;102993.44;;;10.73;63.25
32181;BME280;19172;51.504;3.894;2023-01-28T07:40:26;102987.84;;;10.89;63.13
32181;BME280;19172;51.504;3.894;2023-01-28T07:42:54;102991.09;;;10.56;62.61
32181;BME280;19172;51.504;3.894;2023-01-28T07:45:24;102997.78;;;10.47;63.11
32181;BME280;19172;51.504;3.894;2023-01-28T07:47:57;102998.00;;;10.53;63.34
32181;BME280;19172;51.504;3.894;2023-01-28T07:50:25;102990.78;;;10.03;63.45
32181;BME280;19172;51.504;3.894;2023-01-28T07:52:55;102993.94;;;10.15;64.53
32181;BME280;19172;51.504;3.894;2023-01-28T07:55:24;103005.63;;;9.99;64.92
32181;BME280;19172;51.504;3.894;2023-01-28T07:57:54;102997.53;;;9.95;64.92
32181;BME280;19172;51.504;3.894;2023-01-28T08:00:25;102995.19;;;10.25;65.85
32181;BME280;19172;51.504;3.894;2023-01-28T08:02:57;103001.66;;;9.66;65.47
32181;BME280;19172;51.504;3.894;2023-01-28T08:05:40;103006.16;;;9.69;66.20
32181;BME280;19172;51.504;3.894;2023-01-28T08:08:10;103010.19;;;9.81;66.59
32181;BME280;19172;51.504;3.894;2023-01-28T08:10:38;103003.19;;;10.26;66.45
32181;BME280;19172;51.504;3.894;2023-01-28T08:13:09;103006.78;;;10.06;67.48
32181;BME280;19172;51.504;3.894;2023-01-28T08:15:37;103011.34;;;9.88;66.57
32181;BME280;19172;51.504;3.894;2023-01-28T08:18:08;103009.16;;;9.78;67.16
32181;BME280;19172;51.504;3.894;2023-01-28T08:20:36;103014.19;;;9.08;67.35
32181;BME280;19172;51.504;3.894;2023-01-28T08:23:05;103013.88;;;10.07;67.73
32181;BME280;19172;51.504;3.894;2023-01-28T08:25:33;103014.38;;;10.19;67.79
32181;BME280;19172;51.504;3.894;2023-01-28T08:28:03;103013.63;;;10.45;67.50
32181;BME280;19172;51.504;3.894;2023-01-28T08:30:31;103011.81;;;10.21;67.99
32181;BME280;19172;51.504;3.894;2023-01-28T08:33:00;103025.75;;;9.96;67.68
32181;BME280;19172;51.504;3.894;2023-01-28T08:35:28;103029.41;;;10.20;67.78
32181;BME280;19172;51.504;3.894;2023-01-28T08:37:58;103023.00;;;9.09;67.25
32181;BME280;19172;51.504;3.894;2023-01-28T08:40:28;103027.44;;;9.94;67.93
32181;BME280;19172;51.504;3.894;2023-01-28T08:42:56;103027.31;;;9.91;68.37
32181;BME280;19172;51.504;3.894;2023-01-28T08:45:25;103033.38;;;9.45;67.96
32181;BME280;19172;51.504;3.894;2023-01-28T08:47:57;103030.50;;;9.82;67.72
32181;BME280;19172;51.504;3.894;2023-01-28T08:50:29;103043.28;;;9.72;67.47
32181;BME280;19172;51.504;3.894;2023-01-28T08:53:02;103057.88;;;9.84;67.37
32181;BME280;19172;51.504;3.894;2023-01-28T08:55:30;103056.41;;;10.35;67.85
32181;BME280;19172;51.504;3.894;2023-01-28T08:58:04;103063.06;;;10.48;66.59
32181;BME280;19172;51.504;3.894;2023-01-28T09:00:33;103057.22;;;10.56;66.43
32181;BME280;19172;51.504;3.894;2023-01-28T09:03:02;103059.38;;;10.21;65.59
32181;BME280;19172;51.504;3.894;2023-01-28T09:05:34;103066.75;;;10.51;65.91
32181;BME280;19172;51.504;3.894;2023-01-28T09:08:05;103063.69;;;10.41;64.98
32181;BME280;19172;51.504;3.894;2023-01-28T09:10:34;103067.47;;;10.95;65.73
32181;BME280;19172;51.504;3.894;2023-01-28T09:13:09;103076.34;;;10.72;64.33
32181;BME280;19172;51.504;3.894;2023-01-28T09:15:37;103066.78;;;10.53;64.87
32181;BME280;19172;51.504;3.894;2023-01-28T09:18:05;103071.41;;;11.06;64.73
32181;BME280;19172;51.504;3.894;2023-01-28T09:20:33;103070.41;;;10.55;63.41
32181;BME280;19172;51.504;3.894;2023-01-28T09:23:01;103069.03;;;10.66;63.25
32181;BME280;19172;51.504;3.894;2023-01-28T09:25:29;103074.91;;;10.57;63.88
32181;BME280;19172;51.504;3.894;2023-01-28T09:27:58;103083.38;;;10.04;63.12
32181;BME280;19172;51.504;3.894;2023-01-28T09:30:27;103084.03;;;10.43;63.24
32181;BME280;19172;51.504;3.894;2023-01-28T09:32:56;103087.53;;;9.15;62.61
32181;BME280;19172;51.504;3.894;2023-01-28T09:35:25;103076.66;;;9.49;63.44
32181;BME280;19172;51.504;3.894;2023-01-28T09:37:56;103086.38;;;9.29;63.98
32181;BME280;19172;51.504;3.894;2023-01-28T09:40:39;103092.47;;;10.11;65.26
32181;BME280;19172;51.504;3.894;2023-01-28T09:45:48;103106.56;;;9.69;64.35
32181;BME280;19172;51.504;3.894;2023-01-28T09:48:21;103108.50;;;9.73;64.10
32181;BME280;19172;51.504;3.894;2023-01-28T09:50:53;103105.66;;;9.89;64.19
32181;BME280;19172;51.504;3.894;2023-01-28T09:53:29;103114.66;;;9.94;64.19
32181;BME280;19172;51.504;3.894;2023-01-28T09:58:31;103113.94;;;9.77;63.86
32181;BME280;19172;51.504;3.894;2023-01-28T10:04:05;103118.75;;;9.86;64.78
32181;BME280;19172;51.504;3.894;2023-01-28T10:07:11;103118.78;;;10.08;64.63
32181;BME280;19172;51.504;3.894;2023-01-28T10:16:04;103123.72;;;8.98;64.63
32181;BME280;19172;51.504;3.894;2023-01-28T10:18:54;103116.88;;;10.26;65.40
32181;BME280;19172;51.504;3.894;2023-01-28T10:24:07;103113.38;;;10.05;65.93
32181;BME280;19172;51.504;3.894;2023-01-28T10:26:40;103123.81;;;9.61;65.21
32181;BME280;19172;51.504;3.894;2023-01-28T10:29:17;103122.44;;;9.10;65.96
32181;BME280;19172;51.504;3.894;2023-01-28T10:34:20;103124.72;;;9.61;65.82
32181;BME280;19172;51.504;3.894;2023-01-28T10:36:49;103119.31;;;9.79;65.62
32181;BME280;19172;51.504;3.894;2023-01-28T10:39:21;103116.66;;;10.20;65.61
32181;BME280;19172;51.504;3.894;2023-01-28T10:41:51;103117.00;;;10.51;65.76
32181;BME280;19172;51.504;3.894;2023-01-28T10:44:33;103122.06;;;10.23;65.39
32181;BME280;19172;51.504;3.894;2023-01-28T10:47:14;103121.22;;;10.46;64.59
32181;BME280;19172;51.504;3.894;2023-01-28T10:49:48;103115.63;;;10.17;64.77
32181;BME280;19172;51.504;3.894;2023-01-28T10:52:18;103111.00;;;10.55;64.02
32181;BME280;19172;51.504;3.894;2023-01-28T10:54:46;103115.69;;;10.86;63.83
32181;BME280;19172;51.504;3.894;2023-01-28T10:57:17;103116.63;;;10.88;64.04
32181;BME280;19172;51.504;3.894;2023-01-28T10:59:45;103098.66;;;9.91;63.66
32181;BME280;19172;51.504;3.894;2023-01-28T11:02:30;103100.25;;;9.86;63.44
32181;BME280;19172;51.504;3.894;2023-01-28T11:05:18;103102.84;;;10.27;64.72
32181;BME280;19172;51.504;3.894;2023-01-28T11:07:48;103093.44;;;10.35;64.96
32181;BME280;19172;51.504;3.894;2023-01-28T11:10:30;103094.22;;;10.33;63.83
32181;BME280;19172;51.504;3.894;2023-01-28T11:13:05;103089.84;;;11.03;64.00
32181;BME280;19172;51.504;3.894;2023-01-28T11:15:33;103094.97;;;10.98;63.34
32181;BME280;19172;51.504;3.894;2023-01-28T11:18:05;103094.88;;;11.21;63.99
32181;BME280;19172;51.504;3.894;2023-01-28T11:20:51;103081.75;;;11.24;62.72
32181;BME280;19172;51.504;3.894;2023-01-28T11:23:46;103078.22;;;11.74;62.08
32181;BME280;19172;51.504;3.894;2023-01-28T11:26:29;103067.84;;;11.29;62.06
32181;BME280;19172;51.504;3.894;2023-01-28T11:28:59;103062.31;;;11.48;61.01
32181;BME280;19172;51.504;3.894;2023-01-28T11:31:27;103044.63;;;12.01;61.13
32181;BME280;19172;51.504;3.894;2023-01-28T11:33:58;103041.31;;;12.36;61.21
32181;BME280;19172;51.504;3.894;2023-01-28T11:36:29;103028.47;;;12.50;60.42
32181;BME280;19172;51.504;3.894;2023-01-28T11:39:13;103031.38;;;12.01;59.32
32181;BME280;19172;51.504;3.894;2023-01-28T11:41:42;103016.97;;;11.14;59.72
32181;BME280;19172;51.504;3.894;2023-01-28T11:44:23;102997.81;;;12.01;59.83
32181;BME280;19172;51.504;3.894;2023-01-28T11:58:22;102970.28;;;11.98;60.99
32181;BME280;19172;51.504;3.894;2023-01-28T12:01:15;102980.16;;;11.74;59.39
32181;BME280;19172;51.504;3.894;2023-01-28T12:10:47;102969.31;;;12.87;58.52
32181;BME280;19172;51.504;3.894;2023-01-28T12:15:50;102982.75;;;13.24;57.48
32181;BME280;19172;51.504;3.894;2023-01-28T12:18:28;102988.59;;;13.45;56.22
32181;BME280;19172;51.504;3.894;2023-01-28T12:21:05;103007.66;;;13.29;55.98
32181;BME280;19172;51.504;3.894;2023-01-28T12:37:21;103034.94;;;12.91;55.84
32181;BME280;19172;51.504;3.894;2023-01-28T12:40:24;103035.19;;;12.68;56.79
32181;BME280;19172;51.504;3.894;2023-01-28T12:43:09;103033.03;;;12.55;57.28
32181;BME280;19172;51.504;3.894;2023-01-28T12:45:43;103039.22;;;12.26;57.08
32181;BME280;19172;51.504;3.894;2023-01-28T12:48:33;103051.38;;;11.90;56.89
32181;BME280;19172;51.504;3.894;2023-01-28T12:53:45;103035.34;;;12.43;58.56
32181;BME280;19172;51.504;3.894;2023-01-28T12:56:18;103049.91;;;11.47;57.95
32181;BME280;19172;51.504;3.894;2023-01-28T12:59:24;103046.91;;;11.37;59.16
32181;BME280;19172;51.504;3.894;2023-01-28T13:05:27;103052.94;;;11.33;58.73
32181;BME280;19172;51.504;3.894;2023-01-28T13:10:35;103030.06;;;11.87;59.80
32181;BME280;19172;51.504;3.894;2023-01-28T13:13:05;103028.19;;;12.12;58.97
32181;BME280;19172;51.504;3.894;2023-01-28T13:15:39;103018.63;;;11.62;59.29
32181;BME280;19172;51.504;3.894;2023-01-28T13:26:56;102960.88;;;12.37;58.10
32181;BME280;19172;51.504;3.894;2023-01-28T13:31:54;102945.91;;;11.81;58.54
32181;BME280;19172;51.504;3.894;2023-01-28T13:34:30;102940.91;;;12.20;58.10
32181;BME280;19172;51.504;3.894;2023-01-28T13:39:59;102932.16;;;12.54;57.76
32181;BME280;19172;51.504;3.894;2023-01-28T13:42:29;102930.03;;;12.73;57.14
32181;BME280;19172;51.504;3.894;2023-01-28T13:45:21;102926.28;;;13.00;56.95
32181;BME280;19172;51.504;3.894;2023-01-28T13:47:55;102937.97;;;11.26;57.55
32181;BME280;19172;51.504;3.894;2023-01-28T13:50:36;102932.53;;;11.50;57.69
32181;BME280;19172;51.504;3.894;2023-01-28T13:53:26;102926.56;;;12.43;58.55
32181;BME280;19172;51.504;3.894;2023-01-28T13:56:05;102938.56;;;12.01;57.61
32181;BME280;19172;51.504;3.894;2023-01-28T13:58:56;102949.09;;;11.16;57.52
32181;BME280;19172;51.504;3.894;2023-01-28T14:01:56;102956.81;;;12.20;58.24
32181;BME280;19172;51.504;3.894;2023-01-28T14:04:50;102963.28;;;12.30;58.28
32181;BME280;19172;51.504;3.894;2023-01-28T14:16:39;102981.59;;;11.12;58.68
32181;BME280;19172;51.504;3.894;2023-01-28T14:19:12;102974.66;;;11.42;58.68
32181;BME280;19172;51.504;3.894;2023-01-28T14:21:40;102966.94;;;11.22;59.78
32181;BME280;19172;51.504;3.894;2023-01-28T14:24:16;102964.59;;;11.57;59.78
32181;BME280;19172;51.504;3.894;2023-01-28T14:32:29;102966.34;;;11.84;59.59
32181;BME280;19172;51.504;3.894;2023-01-28T14:35:06;102974.03;;;11.49;59.50
32181;BME280;19172;51.504;3.894;2023-01-28T14:37:35;102980.38;;;11.02;59.54
32181;BME280;19172;51.504;3.894;2023-01-28T14:40:12;102985.44;;;11.47;60.57
32181;BME280;19172;51.504;3.894;2023-01-28T14:42:49;102981.41;;;11.59;59.79
32181;BME280;19172;51.504;3.894;2023-01-28T14:59:28;102983.03;;;11.81;58.94
32181;BME280;19172;51.504;3.894;2023-01-28T15:01:58;102982.63;;;11.69;59.90
32181;BME280;19172;51.504;3.894;2023-01-28T15:04:32;102979.50;;;12.09;60.29
32181;BME280;19172;51.504;3.894;2023-01-28T15:07:35;102979.06;;;11.95;60.51
32181;BME280;19172;51.504;3.894;2023-01-28T15:10:05;102978.59;;;11.80;59.90
32181;BME280;19172;51.504;3.894;2023-01-28T15:12:38;102985.75;;;11.04;59.32
32181;BME280;19172;51.504;3.894;2023-01-28T15:17:47;102985.25;;;12.24;58.92
32181;BME280;19172;51.504;3.894;2023-01-28T15:20:19;102991.03;;;11.83;59.63
32181;BME280;19172;51.504;3.894;2023-01-28T15:22:49;102987.47;;;12.10;59.24
32181;BME280;19172;51.504;3.894;2023-01-28T15:25:21;102994.16;;;11.98;58.88
32181;BME280;19172;51.504;3.894;2023-01-28T15:27:51;102996.13;;;12.33;59.37
32181;BME280;19172;51.504;3.894;2023-01-28T15:30:24;103006.78;;;12.35;58.08
32181;BME280;19172;51.504;3.894;2023-01-28T15:35:26;103010.78;;;12.50;58.03